• Join FlightAware (Why Join?)
  • Login
  • US Flag 
05:01AM EDT


 

Airport Tracker/Info


-or-


 

Live Flight TrackerFlight Track Log ✈ FLG3493 ✈ 09-Jun-2013 ✈ KEWR - KDTW

Flight Track Log - Related Links

Times and Time Zones

All times are in EDT time to prevent confusion due to time zone crossing. See the FLG3493 flight status page for this flight to view local times or setup timezone preferences in your user account.

Time Position Orientation Groundspeed Altitude Reporting Facility
EDT Latitude Longitude Course Direction KTS MPH feet Rate Location/Type
04:47PM 40.6833 -74.1833 194° South 153 176 700  Level New York TRACON
04:48PM 40.6333 -74.2000 194° South 208 239 2,500 2,340 Climbing New York TRACON
04:50PM 40.7222 -74.2706 329° Northwest 212 244 7,200 2,520 Climbing New York Center
04:51PM 40.7781 -74.2869 347° North 243 280 9,500 1,740 Climbing New York Center
04:52PM 40.8603 -74.3269 340° North 278 320 10,700 1,200 Climbing New York Center
04:53PM 40.9425 -74.3642 341° North 284 327 12,000 600 Climbing New York Center
04:54PM 41.0156 -74.3544 North 279 321 12,000 1,320 Level New York Center
04:55PM 41.1006 -74.2983 26° Northeast 295 339 14,700 1,500 Climbing New York Center
04:56PM 41.1758 -74.2139 40° Northeast 321 369 15,000 600 Climbing New York Center
04:57PM 41.2469 -74.1350 40° Northeast 338 389 16,000 480 Climbing New York Center
04:58PM 41.3189 -74.1661 342° North 251 289 16,000  Level New York Center
04:59PM 41.3600 -74.2594 300° West 251 289 16,000 300 Level New York Center
05:00PM 41.4011 -74.3472 302° West 274 315 16,700 1,260 Climbing New York Center
05:01PM 41.4381 -74.4294 301° West 292 336 18,600 1,500 Climbing New York Center
05:02PM 41.4869 -74.5317 303° West 314 361 19,700 1,500 Climbing New York Center
05:03PM 41.5292 -74.6450 296° West 329 379 21,600 1,920 Climbing New York Center
05:04PM 41.5794 -74.7589 301° West 343 395 23,600 1,860 Climbing New York Center
05:05PM 41.6278 -74.8728 300° West 349 402 25,300 1,620 Climbing New York Center
05:06PM 41.6797 -74.9897 301° West 355 409 26,800 1,140 Climbing New York Center
05:07PM 41.7336 -75.1156 300° West 376 433 27,700 1,080 Climbing New York Center
05:08PM 41.7869 -75.2442 299° West 387 445 29,100 1,560 Climbing New York Center
05:09PM 41.8425 -75.3731 300° West 392 451 30,800 1,620 Climbing New York Center
05:10PM 41.8939 -75.4964 299° West 392 451 32,300 1,440 Climbing New York Center
05:11PM 41.9469 -75.6231 299° West 392 451 33,800 840 Climbing New York Center
05:12PM 41.9981 -75.7494 299° West 392 451 34,000 60 Climbing New York Center
05:13PM 42.0508 -75.8764 299° West 392 451 34,000  Level New York Center
05:14PM 42.1114 -76.0208 300° West 392 451 34,100 900 Climbing New York Center
05:15PM 42.1575 -76.1531 295° West 397 457 35,900 900 Climbing New York Center
05:16PM 42.1697 -76.2939 277° West 383 441 36,000  Climbing New York Center
05:17PM 42.1797 -76.4375 275° West 383 441 36,000  Level New York Center
05:18PM 42.1933 -76.6031 276° West 391 450 36,000 480 Level Cleveland Center
05:19PM 42.2047 -76.7481 276° West 391 450 37,100 960 Climbing Cleveland Center
05:20PM 42.2131 -76.8822 275° West 378 435 38,000 420 Climbing Cleveland Center
05:21PM 42.2217 -77.0164 275° West 373 429 38,000  Level Cleveland Center
05:22PM 42.2319 -77.1506 276° West 363 418 38,000  Level Cleveland Center
05:23PM 42.2419 -77.2817 276° West 363 418 38,000  Level Cleveland Center
05:24PM 42.2500 -77.4133 275° West 358 412 38,000  Level Cleveland Center
05:25PM 42.2661 -77.5472 279° West 358 412 38,000  Level Cleveland Center
05:26PM 42.3069 -77.6856 292° West 358 412 38,000  Level Cleveland Center
05:27PM 42.3519 -77.8156 295° West 369 425 38,000  Level Cleveland Center
05:28PM 42.3947 -77.9458 294° West 374 430 38,000  Level Cleveland Center
05:29PM 42.4372 -78.0792 293° West 379 436 38,000  Level Cleveland Center
05:30PM 42.4794 -78.2069 294° West 379 436 38,000  Level Cleveland Center
05:31PM 42.5197 -78.3381 293° West 379 436 38,000  Level Cleveland Center
05:32PM 42.5617 -78.4689 294° West 379 436 38,000  Level Cleveland Center
05:33PM 42.6017 -78.5975 293° West 373 429 38,000  Level Cleveland Center
05:34PM 42.6411 -78.7231 293° West 373 429 38,000  Level Cleveland Center
05:35PM 42.6806 -78.8519 293° West 373 429 38,000  Level Cleveland Center
05:36PM 42.7158 -78.9839 290° West 373 429 38,000 -300 Level Cleveland Center
05:37PM 42.7178 -79.1222 271° West 359 413 37,500 -1,020 Descending Cleveland Center
05:38PM 42.7194 -79.2664 271° West 372 428 36,000 -1,500 Descending Cleveland Center
05:39PM 42.7189 -79.4075 270° West 372 428 34,500 -1,500 Descending Cleveland Center
05:40PM 42.7183 -79.5544 270° West 389 448 33,000 -900 Descending Cleveland Center
05:41PM 42.7194 -79.6986 271° West 389 448 32,700 -660 Descending Cleveland Center
05:42PM 42.7164 -79.8542 269° West 396 456 31,700 -960 Descending Cleveland Center
05:43PM 42.7150 -80.0039 269° West 421 484 30,800 -960 Descending Cleveland Center
05:44PM 42.7117 -80.1594 268° West 428 493 29,800 -1,020 Descending Cleveland Center
05:45PM 42.7122 -80.3203 270° West 425 489 28,800 -900 Descending Cleveland Center
05:46PM 42.7103 -80.4731 269° West 409 471 28,000 -420 Descending Cleveland Center
05:47PM 42.7083 -80.6397 269° West 403 464 28,000 -720 Level Cleveland Center
05:48PM 42.7081 -80.7894 270° West 403 464 26,600 -1,500 Descending Cleveland Center
05:49PM 42.7014 -80.9278 266° West 391 450 25,100 -1,500 Descending Cleveland Center
05:50PM 42.7008 -81.0747 270° West 386 444 23,600 -1,500 Descending Cleveland Center
05:51PM 42.6836 -81.2158 261° West 386 444 22,100 -1,500 Descending Cleveland Center
05:52PM 42.6661 -81.3539 260° West 386 444 20,600 -1,500 Descending Cleveland Center
05:53PM 42.6483 -81.4892 260° West 380 437 19,100 -1,500 Descending Cleveland Center
05:54PM 42.6306 -81.6161 259° West 367 422 17,700 -1,500 Descending Cleveland Center
05:55PM 42.6147 -81.7456 261° West 354 407 16,200 -1,440 Descending Cleveland Center
05:56PM 42.5989 -81.8608 259° West 349 402 14,900 -1,380 Descending Cleveland Center
05:57PM 42.5831 -81.9875 260° West 349 402 13,500 -1,440 Descending Cleveland Center
05:58PM 42.5647 -82.1167 259° West 349 402 12,100 -900 Descending Cleveland Center
05:59PM 42.5528 -82.2264 262° West 356 410 12,000 -120 Descending Cleveland Center
05:59PM 42.5483 -82.2458 253° West 354 407 12,000  Level Cleveland Center
06:00PM 42.5339 -82.3611 260° West 355 409 12,000  Level Cleveland Center
06:00PM 42.5294 -82.3781 250° West 354 407 12,000  Level Cleveland Center
06:01PM 42.5153 -82.4931 261° West 355 409 12,000  Level Cleveland Center
06:02PM 42.4817 -82.6214 250° West 354 407 12,000  Level Cleveland Center
06:03PM 42.4378 -82.7439 244° Southwest 353 406 12,000  Level Cleveland Center
06:04PM 42.3939 -82.8661 244° Southwest 352 405 12,000  Level Cleveland Center
06:05PM 42.3539 -82.9828 245° Southwest 351 404 12,000  Level Cleveland Center
06:06PM 42.3097 -83.1017 243° Southwest 350 403 12,000 -120 Level Cleveland Center
06:07PM 42.2533 -83.1892 229° Southwest 264 304 11,800 -900 Descending Cleveland Center
06:08PM 42.1903 -83.2231 202° Southwest 227 261 10,200 -1,740 Descending Cleveland Center
06:09PM 42.1311 -83.2572 203° Southwest 228 262 8,300 -1,620 Descending Cleveland Center
06:10PM 42.0761 -83.2883 203° Southwest 214 246 7,000 -1,320 Descending Cleveland Center
06:11PM 42.0231 -83.3225 206° Southwest 207 238 5,700 -1,920 Descending Cleveland Center
06:12PM 42.0047 -83.3886 250° West 239 275 3,100 -1,320 Descending Cleveland Center
06:13PM 42.0628 -83.4081 346° North 194 223 3,000 -300 Descending Cleveland Center
06:14PM 42.1169 -83.4133 356° North 186 214 2,600 -420 Descending Cleveland Center